createdAt,value
2023-10-20T00:03:12.098Z,9.1
2023-10-20T00:09:03.884Z,9.1
2023-10-20T00:14:55.795Z,9
2023-10-20T00:20:47.353Z,9
2023-10-20T00:26:39.000Z,8.9
2023-10-20T00:32:31.306Z,9
2023-10-20T00:38:22.838Z,8.9
2023-10-20T00:44:14.831Z,8.9
2023-10-20T00:50:07.881Z,8.8
2023-10-20T00:56:00.140Z,8.7
2023-10-20T01:01:52.111Z,8.7
2023-10-20T01:07:45.170Z,8.7
2023-10-20T01:13:37.470Z,8.6
2023-10-20T01:19:29.291Z,8.4
2023-10-20T01:25:21.511Z,8.4
2023-10-20T01:31:12.785Z,8.3
2023-10-20T01:37:04.817Z,8.3
2023-10-20T01:42:56.396Z,8.1
2023-10-20T01:48:49.586Z,8.1
2023-10-20T01:54:41.827Z,7.9
2023-10-20T02:00:33.264Z,7.8
2023-10-20T02:06:26.494Z,7.6
2023-10-20T02:12:03.266Z,7.5
2023-10-20T02:17:56.424Z,7.4
2023-10-20T02:23:48.724Z,7.2
2023-10-20T02:29:40.228Z,7.1
2023-10-20T02:35:33.118Z,6.9
2023-10-20T02:41:24.344Z,6.9
2023-10-20T02:47:15.961Z,6.8
2023-10-20T02:53:08.670Z,6.6
2023-10-20T02:59:00.612Z,6.6
2023-10-20T03:04:54.273Z,6.5
2023-10-20T03:10:46.443Z,6.4
2023-10-20T03:16:38.052Z,6.3
2023-10-20T03:22:29.589Z,6.2
2023-10-20T03:28:24.997Z,6.1
2023-10-20T03:34:17.146Z,6.1
2023-10-20T03:40:09.812Z,6.1
2023-10-20T03:46:01.458Z,6
2023-10-20T03:51:54.136Z,5.9
2023-10-20T03:57:45.935Z,5.9
2023-10-20T04:03:39.020Z,5.8
2023-10-20T04:09:15.547Z,5.8
2023-10-20T04:14:52.225Z,5.7
2023-10-20T04:20:31.678Z,5.6
2023-10-20T04:26:07.671Z,5.6
2023-10-20T04:31:44.151Z,5.6
2023-10-20T04:37:22.106Z,5.6
2023-10-20T04:42:59.023Z,5.6
2023-10-20T04:48:36.475Z,5.7
2023-10-20T04:54:13.818Z,5.8
2023-10-20T04:59:35.423Z,5.8
2023-10-20T05:05:15.336Z,5.8
2023-10-20T05:10:51.575Z,5.8
2023-10-20T05:16:27.707Z,5.9
2023-10-20T05:22:04.084Z,6
2023-10-20T05:27:39.881Z,6.2
2023-10-20T05:33:19.184Z,6.8
2023-10-20T05:38:40.031Z,7.9
2023-10-20T05:44:00.925Z,9.6
2023-10-20T05:49:22.605Z,11.6
2023-10-20T05:54:43.721Z,13.7
2023-10-20T06:00:04.715Z,15.8
2023-10-20T06:05:57.875Z,18.4
2023-10-20T06:11:19.636Z,21.1
2023-10-20T06:16:40.204Z,24.2
2023-10-20T06:22:30.772Z,27.8
2023-10-20T06:27:51.794Z,30.9
2023-10-20T06:33:13.942Z,33.5
2023-10-20T06:38:50.962Z,36.8
2023-10-20T06:44:27.829Z,39.9
2023-10-20T06:50:05.415Z,43
2023-10-20T06:56:52.977Z,43.8
2023-10-20T07:02:45.013Z,36.6
2023-10-20T07:08:37.000Z,34.3
2023-10-20T07:14:33.839Z,33.8
2023-10-20T07:20:26.814Z,33.8
2023-10-20T07:26:21.279Z,33.7
2023-10-20T07:32:19.674Z,33.5
2023-10-20T07:38:12.804Z,33.7
2023-10-20T07:44:05.240Z,34.4
2023-10-20T07:49:59.567Z,38.4
2023-10-20T07:55:36.033Z,46.6
2023-10-20T08:01:30.067Z,47.8
2023-10-20T08:07:31.214Z,38.9
2023-10-20T08:13:25.748Z,37
2023-10-20T08:19:19.035Z,40.9
2023-10-20T08:25:11.630Z,46
2023-10-20T08:31:04.436Z,45.6
2023-10-20T08:36:57.728Z,48.2
2023-10-20T08:48:35.533Z,53.6
2023-10-20T08:54:15.965Z,54.3
2023-10-20T09:00:12.175Z,56.5
2023-10-20T09:06:22.890Z,58.9
2023-10-20T09:12:18.466Z,60.8
2023-10-20T09:18:14.042Z,61.9
2023-10-20T09:24:08.922Z,62.8
2023-10-20T09:29:34.483Z,64.1
2023-10-20T09:35:32.898Z,65.1
2023-10-20T09:41:09.122Z,64.1
2023-10-20T09:47:13.271Z,60.5
2023-10-20T09:53:12.171Z,58.9
2023-10-20T09:59:08.219Z,56.6
2023-10-20T10:05:02.746Z,56.8
2023-10-20T10:10:55.353Z,54.8
2023-10-20T10:16:47.873Z,48.7
2023-10-20T10:22:42.555Z,46.1
2023-10-20T10:28:48.865Z,48.6
2023-10-20T10:35:01.128Z,58.5
2023-10-20T10:40:56.594Z,63.1
2023-10-20T10:46:53.011Z,61.3
2023-10-20T10:52:53.313Z,63
2023-10-20T10:58:49.848Z,63.9
2023-10-20T11:04:45.124Z,63.9
2023-10-20T11:10:40.303Z,63.7
2023-10-20T11:16:34.536Z,63.8
2023-10-20T11:22:32.914Z,65.3
2023-10-20T11:28:26.067Z,64.7
2023-10-20T11:34:29.930Z,65.1
2023-10-20T11:40:22.169Z,64.4
2023-10-20T11:46:13.589Z,63.1
2023-10-20T11:52:09.559Z,62.7
2023-10-20T11:58:04.290Z,61.9
2023-10-20T12:03:56.750Z,61.4
2023-10-20T12:09:49.189Z,61.3
2023-10-20T12:15:25.685Z,61
2023-10-20T12:21:18.347Z,59.8
2023-10-20T12:26:55.022Z,59.3
2023-10-20T12:32:51.905Z,59.9
2023-10-20T12:38:43.944Z,59.2
2023-10-20T12:44:36.126Z,56.7
2023-10-20T12:50:14.308Z,57.4
2023-10-20T12:55:50.836Z,57.3
2023-10-20T13:01:28.428Z,56.9
2023-10-20T13:07:18.552Z,56.4
2023-10-20T13:12:55.022Z,54.4
2023-10-20T13:18:50.091Z,54.3
2023-10-20T13:24:26.712Z,54.5
2023-10-20T13:30:18.386Z,53.2
2023-10-20T13:36:15.569Z,51.9
2023-10-20T13:42:25.255Z,50.4
2023-10-20T13:48:17.949Z,49
2023-10-20T13:54:11.228Z,48.6
2023-10-20T14:00:02.808Z,47.2
2023-10-20T14:05:42.905Z,45.7
2023-10-20T14:11:19.356Z,44.4
2023-10-20T14:16:55.548Z,43.4
2023-10-20T14:22:31.862Z,41.7
2023-10-20T14:28:07.808Z,40.1
2023-10-20T14:33:44.201Z,38.7
2023-10-20T14:39:20.291Z,37.6
2023-10-20T14:44:59.976Z,36.8
2023-10-20T14:50:37.006Z,35.8
2023-10-20T14:56:28.103Z,34.8
2023-10-20T15:02:05.654Z,33.9
2023-10-20T15:08:16.052Z,32.9
2023-10-20T15:14:09.030Z,32
2023-10-20T15:20:05.088Z,31.1
2023-10-20T15:26:08.318Z,30.1
2023-10-20T15:32:02.031Z,29.3
2023-10-20T15:37:54.484Z,28.4
2023-10-20T15:44:15.161Z,27.6
2023-10-20T15:50:08.047Z,26.9
2023-10-20T15:55:59.307Z,26.4
2023-10-20T16:01:51.847Z,25.9
2023-10-20T16:07:47.581Z,25.4
2023-10-20T16:13:23.493Z,25.1
2023-10-20T16:19:15.442Z,24.9
2023-10-20T16:25:06.803Z,24.6
2023-10-20T16:31:00.793Z,24.4
2023-10-20T16:36:53.328Z,24.2
2023-10-20T16:42:44.294Z,24
2023-10-20T16:48:05.533Z,23.8
2023-10-20T16:53:56.990Z,23.6
2023-10-20T16:59:47.910Z,23.3
2023-10-20T17:05:41.328Z,23.3
2023-10-20T17:11:20.077Z,23.3
2023-10-20T17:17:13.353Z,23.3
2023-10-20T17:23:05.740Z,23.2
2023-10-20T17:28:57.631Z,23.1
2023-10-20T17:34:50.355Z,23
2023-10-20T17:40:43.069Z,22.9
2023-10-20T17:46:38.429Z,22.9
2023-10-20T17:52:30.379Z,22.8
2023-10-20T17:58:23.471Z,22.8
2023-10-20T18:04:21.305Z,22.8
2023-10-20T18:10:18.916Z,22.8
2023-10-20T18:16:12.601Z,22.8
2023-10-20T18:22:07.049Z,22.8
2023-10-20T18:28:03.125Z,22.8
2023-10-20T18:33:56.331Z,22.8
2023-10-20T18:39:48.735Z,22.7
2023-10-20T18:45:27.107Z,22.4
2023-10-20T18:51:22.462Z,22.2
2023-10-20T18:57:15.205Z,22.1
2023-10-20T19:03:09.594Z,22
2023-10-20T19:08:47.703Z,22
2023-10-20T19:14:43.498Z,22.1
2023-10-20T19:20:38.870Z,21.5
2023-10-20T19:26:35.802Z,20.8
2023-10-20T19:32:28.299Z,20.3
2023-10-20T19:38:22.025Z,19.8
2023-10-20T19:44:15.347Z,19.3
2023-10-20T19:50:09.439Z,18.9
2023-10-20T19:56:01.202Z,18.6
2023-10-20T20:01:54.887Z,18.4
2023-10-20T20:07:49.762Z,18.2
2023-10-20T20:13:41.988Z,18.1
2023-10-20T20:19:22.928Z,17.9
2023-10-20T20:24:59.297Z,17.7
2023-10-20T20:30:51.654Z,17.5
2023-10-20T20:36:43.857Z,17.4
2023-10-20T20:42:36.556Z,17.3
2023-10-20T20:54:14.449Z,16.8
2023-10-20T21:00:06.707Z,16.6
2023-10-20T21:05:48.103Z,16.5
2023-10-20T21:11:23.288Z,16.5
2023-10-20T21:17:15.354Z,16.4
2023-10-20T21:22:52.946Z,16.1
2023-10-20T21:28:28.619Z,16.1
2023-10-20T21:34:05.007Z,16.1
2023-10-20T21:39:58.044Z,16.4
2023-10-20T21:45:34.207Z,16.6
2023-10-20T21:51:10.731Z,16.5
2023-10-20T21:56:46.749Z,16.6
2023-10-20T22:02:35.966Z,16.4
2023-10-20T22:08:29.005Z,16.3
2023-10-20T22:14:31.707Z,16.1
2023-10-20T22:20:08.411Z,15.9
2023-10-20T22:26:00.266Z,15.8
2023-10-20T22:31:54.920Z,15.8
2023-10-20T22:37:31.446Z,15.8
2023-10-20T22:43:23.928Z,15.8
2023-10-20T22:49:01.603Z,15.7
2023-10-20T22:54:55.462Z,15.7
2023-10-20T23:00:17.193Z,15.7
2023-10-20T23:05:54.754Z,15.6
2023-10-20T23:11:31.348Z,15.4
2023-10-20T23:17:23.126Z,15.5
2023-10-20T23:22:44.561Z,15.4
2023-10-20T23:28:04.631Z,15.3
2023-10-20T23:33:25.942Z,15.5
2023-10-20T23:39:18.432Z,15.5
2023-10-20T23:44:55.229Z,15.5
2023-10-20T23:50:32.487Z,15.6
2023-10-20T23:56:08.502Z,15.6
